createdAt,value
2022-09-18T00:02:23.318Z,100476.91
2022-09-18T00:12:25.592Z,100487.44
2022-09-18T00:22:26.939Z,100487.34
2022-09-18T00:32:28.264Z,100482.22
2022-09-18T00:42:29.619Z,100477.66
2022-09-18T00:52:31.003Z,100460.22
2022-09-18T01:02:32.393Z,100461.94
2022-09-18T01:12:34.187Z,100456.78
2022-09-18T01:22:35.631Z,100458.63
2022-09-18T01:32:36.845Z,100477.75
2022-09-18T01:42:38.149Z,100488.97
2022-09-18T01:52:39.523Z,100476.72
2022-09-18T02:02:41.316Z,100473.41
2022-09-18T02:12:42.670Z,100484.66
2022-09-18T02:22:44.004Z,100467.25
2022-09-18T02:32:45.333Z,100460.25
2022-09-18T02:42:46.718Z,100466.38
2022-09-18T02:52:48.115Z,100452.59
2022-09-18T03:02:49.653Z,100450.72
2022-09-18T03:12:51.082Z,100444.66
2022-09-18T03:22:52.429Z,100448.06
2022-09-18T03:32:53.758Z,100451.56
2022-09-18T03:42:55.062Z,100460.31
2022-09-18T03:52:56.613Z,100463.94
2022-09-18T04:02:57.992Z,100478.91
2022-09-18T04:12:59.334Z,100466.69
2022-09-18T04:23:00.654Z,100449.25
2022-09-18T04:33:02.354Z,100464.97
2022-09-18T04:43:03.602Z,100463.97
2022-09-18T04:53:04.943Z,100480.44
2022-09-18T05:03:06.273Z,100463.81
2022-09-18T05:13:07.584Z,100451.00
2022-09-18T05:23:27.265Z,100469.22
2022-09-18T05:33:28.667Z,100480.69
2022-09-18T05:43:29.976Z,100494.66
2022-09-18T05:53:31.351Z,100495.47
2022-09-18T06:03:32.683Z,100512.88
2022-09-18T06:13:34.013Z,100516.97
2022-09-18T06:23:35.345Z,100509.78
2022-09-18T06:33:36.765Z,100525.28
2022-09-18T06:43:38.083Z,100522.69
2022-09-18T06:53:39.385Z,100515.59
2022-09-18T07:03:40.684Z,100532.94
2022-09-18T07:13:42.241Z,100522.25
2022-09-18T07:23:43.591Z,100528.47
2022-09-18T07:33:44.850Z,100528.66
2022-09-18T07:43:46.159Z,100530.38
2022-09-18T07:53:47.409Z,100559.09
2022-09-18T08:03:48.705Z,100572.38
2022-09-18T08:13:50.036Z,100558.66
2022-09-18T08:23:51.266Z,100565.66
2022-09-18T08:33:53.251Z,100563.13
2022-09-18T08:43:54.563Z,100560.19
2022-09-18T08:53:55.990Z,100541.31
2022-09-18T09:03:57.275Z,100532.91
2022-09-18T09:13:58.620Z,100538.38
2022-09-18T09:23:59.970Z,100534.06
2022-09-18T09:34:01.344Z,100527.66
2022-09-18T09:44:02.650Z,100524.25
2022-09-18T09:54:04.019Z,100518.41
2022-09-18T10:04:05.432Z,100507.59
2022-09-18T10:14:06.775Z,100500.31
2022-09-18T10:24:08.017Z,100490.31
2022-09-18T10:34:09.349Z,100473.72
2022-09-18T10:44:10.898Z,100460.16
2022-09-18T10:54:12.231Z,100461.06
2022-09-18T11:04:13.561Z,100459.06
2022-09-18T11:14:14.797Z,100440.75
2022-09-18T11:24:16.259Z,100441.41
2022-09-18T11:34:17.580Z,100430.09
2022-09-18T11:44:18.851Z,100431.34
2022-09-18T11:54:20.081Z,100409.00
2022-09-18T12:04:21.398Z,100418.50
2022-09-18T12:14:21.748Z,100398.81
2022-09-18T12:24:23.054Z,100382.69
2022-09-18T12:34:24.365Z,100378.78
2022-09-18T12:44:26.517Z,100386.22
2022-09-18T12:54:27.855Z,100390.75
2022-09-18T13:04:29.155Z,100391.22
2022-09-18T13:14:30.455Z,100374.47
2022-09-18T13:24:35.475Z,100365.78
2022-09-18T13:34:36.736Z,100356.44
2022-09-18T13:44:38.045Z,100337.13
2022-09-18T13:54:40.082Z,100322.97
2022-09-18T14:04:43.094Z,100332.97
2022-09-18T14:14:44.340Z,100318.00
2022-09-18T14:24:45.791Z,100308.50
2022-09-18T14:34:47.103Z,100298.03
2022-09-18T14:44:48.341Z,100295.75
2022-09-18T14:54:49.692Z,100273.22
2022-09-18T15:04:51.116Z,100276.09
2022-09-18T15:14:52.638Z,100252.47
2022-09-18T15:24:54.667Z,100245.41
2022-09-18T15:34:55.986Z,100230.38
2022-09-18T15:44:57.320Z,100225.22
2022-09-18T15:54:58.648Z,100218.94
2022-09-18T16:04:59.903Z,100207.91
2022-09-18T16:15:01.215Z,100194.13
2022-09-18T16:25:02.604Z,100187.75
2022-09-18T16:35:04.007Z,100183.59
2022-09-18T16:45:05.306Z,100177.06
2022-09-18T16:55:07.360Z,100189.69
2022-09-18T17:05:08.593Z,100189.00
2022-09-18T17:15:09.901Z,100178.31
2022-09-18T17:25:12.355Z,100181.31
2022-09-18T17:35:13.678Z,100183.25
2022-09-18T17:45:15.042Z,100193.78
2022-09-18T17:55:16.429Z,100192.66
2022-09-18T18:05:17.772Z,100199.53
2022-09-18T18:15:19.533Z,100190.03
2022-09-18T18:25:23.605Z,100200.78
2022-09-18T18:35:25.143Z,100212.38
2022-09-18T18:45:26.478Z,100217.19
2022-09-18T18:55:27.808Z,100224.19
2022-09-18T19:05:30.419Z,100225.91
2022-09-18T19:15:33.812Z,100235.81
2022-09-18T19:25:36.926Z,100246.72
2022-09-18T19:35:38.222Z,100251.84
2022-09-18T19:45:39.861Z,100255.88
2022-09-18T19:55:44.438Z,100259.69
2022-09-18T20:05:45.741Z,100251.09
2022-09-18T20:15:47.106Z,100235.13
2022-09-18T20:25:49.729Z,100225.69
2022-09-18T20:35:53.149Z,100222.81
2022-09-18T20:45:54.524Z,100221.97
2022-09-18T20:55:55.833Z,100243.13
2022-09-18T21:06:18.813Z,100256.28
2022-09-18T21:16:20.566Z,100268.44
2022-09-18T21:26:21.925Z,100275.47
2022-09-18T21:36:23.301Z,100283.78
2022-09-18T21:46:25.373Z,100302.16
2022-09-18T21:56:26.715Z,100325.19
2022-09-18T22:06:28.276Z,100344.00
2022-09-18T22:16:29.694Z,100401.13
2022-09-18T22:26:31.227Z,100439.66
2022-09-18T22:36:32.529Z,100443.28
2022-09-18T22:46:33.875Z,100441.47
2022-09-18T22:56:36.214Z,100438.75
2022-09-18T23:06:37.509Z,100431.53
2022-09-18T23:16:39.026Z,100445.38
2022-09-18T23:26:40.428Z,100445.56
2022-09-18T23:36:41.841Z,100458.13
2022-09-18T23:46:43.279Z,100464.50
2022-09-18T23:56:44.606Z,100462.84
